Time;durP1;ratioP1;P1;durP2;ratioP2;P2;SDS_P1;SDS_P2;PMS_P1;PMS_P2;Temp;Humidity;BMP_temperature;BMP_pressure;BME280_temperature;BME280_humidity;BME280_pressure;Samples;Min_cycle;Max_cycle;Signal;HPM_P1;HPM_P2
2023/10/18 00:01:02;;;;;;;7.13;5.18;;;7.30;99.90;;;;;;5011665;28;20179;-58
2023/10/18 00:03:29;;;;;;;5.43;3.88;;;7.30;99.90;;;;;;5010751;28;20631;-59
2023/10/18 00:05:59;;;;;;;6.43;4.05;;;7.30;99.90;;;;;;5011673;28;20238;-59
2023/10/18 00:08:25;;;;;;;6.38;4.30;;;7.30;99.90;;;;;;5011659;28;20206;-58
2023/10/18 00:10:53;;;;;;;6.82;4.45;;;7.30;99.90;;;;;;5011659;28;20306;-59
2023/10/18 00:13:22;;;;;;;7.00;4.40;;;7.30;99.90;;;;;;5010218;28;20172;-59
2023/10/18 00:15:52;;;;;;;6.28;4.43;;;7.30;99.90;;;;;;5011287;28;20168;-59
2023/10/18 00:18:19;;;;;;;8.18;4.38;;;7.30;99.90;;;;;;5013258;28;20577;-58
2023/10/18 00:20:45;;;;;;;5.35;3.95;;;7.30;99.90;;;;;;5015072;28;20215;-58
2023/10/18 00:23:10;;;;;;;6.82;4.10;;;7.30;99.90;;;;;;5013787;28;20262;-59
2023/10/18 00:25:36;;;;;;;4.78;3.80;;;7.30;99.90;;;;;;5015047;28;20200;-58
2023/10/18 00:28:03;;;;;;;9.23;4.63;;;7.30;99.90;;;;;;5015014;28;20671;-58
2023/10/18 00:30:30;;;;;;;10.75;4.22;;;7.30;99.90;;;;;;5015044;28;20204;-58
2023/10/18 00:32:56;;;;;;;8.35;4.53;;;7.30;99.90;;;;;;5014921;28;20655;-59
2023/10/18 00:35:39;;;;;;;7.13;3.63;;;7.20;99.90;;;;;;5015203;28;20184;-58
2023/10/18 00:38:16;;;;;;;8.05;4.65;;;7.20;99.90;;;;;;5013524;28;20569;-58
2023/10/18 00:40:45;;;;;;;9.23;4.25;;;7.20;99.90;;;;;;5014748;28;20663;-58
2023/10/18 00:43:25;;;;;;;7.90;4.18;;;7.20;99.90;;;;;;5014663;28;20175;-58
2023/10/18 00:45:52;;;;;;;6.43;4.78;;;7.20;99.90;;;;;;5015175;28;20246;-58
2023/10/18 00:48:20;;;;;;;5.72;4.05;;;7.20;99.90;;;;;;5013516;28;20188;-58
2023/10/18 00:50:48;;;;;;;6.72;3.70;;;7.20;99.90;;;;;;5014520;28;20175;-58
2023/10/18 00:53:20;;;;;;;5.63;4.13;;;7.20;99.90;;;;;;5014565;28;20164;-58
2023/10/18 00:55:57;;;;;;;5.85;3.92;;;7.20;99.90;;;;;;5014481;28;20172;-58
2023/10/18 00:58:23;;;;;;;6.30;3.88;;;7.20;99.90;;;;;;5014884;28;20175;-58
2023/10/18 01:00:50;;;;;;;4.05;3.65;;;7.20;99.90;;;;;;5014437;28;20168;-58
2023/10/18 01:03:32;;;;;;;5.32;3.55;;;7.20;99.90;;;;;;5014623;28;20255;-58
2023/10/18 01:05:59;;;;;;;4.47;3.72;;;7.20;99.90;;;;;;5014335;28;20168;-58
2023/10/18 01:08:26;;;;;;;6.03;3.88;;;7.10;99.90;;;;;;5014552;28;20210;-58
2023/10/18 01:10:51;;;;;;;6.93;4.32;;;7.20;99.90;;;;;;5014613;28;20207;-58
2023/10/18 01:13:20;;;;;;;5.00;3.80;;;7.10;99.90;;;;;;5014141;28;20529;-58
2023/10/18 01:15:46;;;;;;;4.75;3.80;;;7.10;99.90;;;;;;5014081;28;20159;-58
2023/10/18 01:18:11;;;;;;;7.35;3.75;;;7.10;99.90;;;;;;5014001;28;20168;-58
2023/10/18 01:20:40;;;;;;;4.07;3.40;;;7.10;99.90;;;;;;5014360;28;20172;-58
2023/10/18 01:23:10;;;;;;;5.80;4.40;;;7.10;99.90;;;;;;5014247;28;20180;-58
2023/10/18 01:25:36;;;;;;;5.70;3.95;;;7.10;99.90;;;;;;5012753;28;20175;-58
2023/10/18 01:28:01;;;;;;;7.45;3.50;;;7.10;99.90;;;;;;5013596;28;20204;-58
2023/10/18 01:30:29;;;;;;;5.07;4.28;;;7.10;99.90;;;;;;5013813;28;20196;-58
2023/10/18 01:32:55;;;;;;;6.63;3.45;;;7.10;99.90;;;;;;5014182;28;20168;-58
2023/10/18 01:35:21;;;;;;;4.35;3.10;;;7.50;99.90;;;;;;5014042;28;20165;-57
2023/10/18 01:37:49;;;;;;;4.82;3.80;;;7.10;99.90;;;;;;5013684;28;20179;-58
2023/10/18 01:40:21;;;;;;;5.65;3.72;;;7.10;99.90;;;;;;5013676;28;20616;-58
2023/10/18 01:42:57;;;;;;;4.60;3.90;;;7.10;99.90;;;;;;5013965;28;20180;-60
2023/10/18 01:45:26;;;;;;;8.15;4.00;;;7.10;99.90;;;;;;5014165;28;20190;-58
2023/10/18 01:47:51;;;;;;;3.50;2.97;;;7.10;99.90;;;;;;5014060;28;20204;-59
2023/10/18 01:50:18;;;;;;;5.53;3.63;;;7.10;99.90;;;;;;5013424;28;20230;-58
2023/10/18 01:52:45;;;;;;;5.13;3.70;;;7.10;99.90;;;;;;5013395;28;20200;-59
2023/10/18 01:55:12;;;;;;;4.10;3.20;;;7.10;99.90;;;;;;5013386;28;20184;-58
2023/10/18 01:57:38;;;;;;;5.45;3.75;;;7.10;99.90;;;;;;5013590;28;20597;-58
2023/10/18 02:00:05;;;;;;;7.40;4.65;;;7.00;99.90;;;;;;5013413;28;20247;-58
2023/10/18 02:02:34;;;;;;;5.97;3.55;;;7.10;99.90;;;;;;5013402;28;20533;-59
2023/10/18 02:04:59;;;;;;;8.32;3.95;;;7.10;99.90;;;;;;5013289;28;20259;-59
2023/10/18 02:07:25;;;;;;;6.10;3.78;;;7.10;99.90;;;;;;5013196;28;20283;-59
2023/10/18 02:09:57;;;;;;;4.78;3.42;;;7.10;99.90;;;;;;5013440;28;20217;-59
2023/10/18 02:12:23;;;;;;;4.65;3.80;;;7.10;99.90;;;;;;5013529;28;20570;-59
2023/10/18 02:14:49;;;;;;;4.80;3.83;;;7.10;99.90;;;;;;5012998;28;20214;-59
2023/10/18 02:17:18;;;;;;;6.55;3.88;;;7.10;99.90;;;;;;5012912;28;20207;-59
2023/10/18 02:19:44;;;;;;;7.18;3.67;;;7.10;99.90;;;;;;5012830;28;20172;-59
2023/10/18 02:22:13;;;;;;;3.47;3.17;;;7.10;99.90;;;;;;5013100;28;20180;-59
2023/10/18 02:24:38;;;;;;;5.93;3.60;;;7.00;99.90;;;;;;5013022;28;20186;-59
2023/10/18 02:27:08;;;;;;;6.53;3.70;;;7.10;99.90;;;;;;5012859;28;20675;-59
2023/10/18 02:29:35;;;;;;;4.63;3.55;;;7.00;99.90;;;;;;5012947;28;20172;-59
2023/10/18 02:32:04;;;;;;;5.53;3.58;;;7.10;99.90;;;;;;5012708;28;20167;-58
2023/10/18 02:34:33;;;;;;;5.38;3.58;;;7.10;99.90;;;;;;5012868;28;20172;-59
2023/10/18 02:37:00;;;;;;;5.40;3.60;;;7.10;99.90;;;;;;5012820;28;20174;-58
2023/10/18 02:39:32;;;;;;;4.80;3.30;;;7.00;99.90;;;;;;5012954;28;20180;-60
2023/10/18 02:41:58;;;;;;;4.13;3.33;;;7.00;99.90;;;;;;5012015;28;20160;-58
2023/10/18 02:44:25;;;;;;;4.57;3.38;;;7.00;99.90;;;;;;5013312;28;20259;-57
2023/10/18 02:46:55;;;;;;;4.65;3.60;;;7.60;99.90;;;;;;5012748;28;20666;-57
2023/10/18 02:49:23;;;;;;;6.97;4.13;;;7.10;99.90;;;;;;5013011;28;20198;-56
2023/10/18 02:51:50;;;;;;;4.80;3.70;;;7.00;99.90;;;;;;5012562;28;20191;-58
2023/10/18 02:54:16;;;;;;;4.50;3.78;;;7.00;99.90;;;;;;5011121;28;20241;-58
2023/10/18 02:56:50;;;;;;;3.75;3.25;;;7.00;99.90;;;;;;5012334;28;20631;-58
2023/10/18 02:59:24;;;;;;;6.97;3.45;;;7.10;99.90;;;;;;5012375;28;20172;-59
2023/10/18 03:01:55;;;;;;;4.90;3.72;;;7.00;99.90;;;;;;5012859;28;20199;-59
2023/10/18 03:04:22;;;;;;;4.93;3.40;;;7.00;99.90;;;;;;5012500;28;20263;-59
2023/10/18 03:06:52;;;;;;;5.65;4.13;;;7.00;99.90;;;;;;5011996;28;20730;-59
2023/10/18 03:12:01;;;;;;;5.65;3.75;;;7.00;99.90;;;;;;5012342;28;20561;-59
2023/10/18 03:14:39;;;;;;;5.63;3.33;;;7.00;99.90;;;;;;5012056;28;20250;-59
2023/10/18 03:17:18;;;;;;;6.22;3.60;;;7.00;99.90;;;;;;5012138;28;20210;-59
2023/10/18 03:19:44;;;;;;;6.40;3.50;;;7.00;99.90;;;;;;5011991;28;20247;-59
2023/10/18 03:22:10;;;;;;;7.22;3.35;;;7.00;99.90;;;;;;5011950;28;20227;-58
2023/10/18 03:24:37;;;;;;;5.30;3.60;;;7.00;99.90;;;;;;5011887;28;20212;-59
2023/10/18 03:27:08;;;;;;;8.95;3.35;;;7.00;99.90;;;;;;5011709;28;20195;-58
2023/10/18 03:29:37;;;;;;;5.22;3.65;;;4.60;99.90;;;;;;5011797;28;20519;-59
2023/10/18 03:32:06;;;;;;;3.13;2.72;;;7.00;99.90;;;;;;5011972;28;20168;-58
2023/10/18 03:34:35;;;;;;;3.72;3.35;;;7.00;99.90;;;;;;5011935;28;20171;-58
2023/10/18 03:37:04;;;;;;;4.25;3.38;;;7.00;99.90;;;;;;5011935;28;20233;-59
2023/10/18 03:39:30;;;;;;;9.02;3.20;;;7.00;99.90;;;;;;5011709;28;20167;-59
2023/10/18 03:41:58;;;;;;;3.97;3.25;;;7.00;99.90;;;;;;5011547;28;20168;-59
2023/10/18 03:44:27;;;;;;;6.55;3.20;;;7.10;99.90;;;;;;5012115;28;20582;-59
2023/10/18 03:47:04;;;;;;;5.10;3.33;;;7.00;99.90;;;;;;5011760;28;20275;-58
2023/10/18 03:49:38;;;;;;;4.80;3.45;;;7.10;99.90;;;;;;5010225;28;20306;-58
2023/10/18 03:54:47;;;;;;;5.82;3.47;;;7.00;99.90;;;;;;5015980;28;20174;-59
2023/10/18 03:57:16;;;;;;;5.30;3.13;;;7.10;99.90;;;;;;5015897;28;20199;-59
2023/10/18 03:59:45;;;;;;;3.58;3.08;;;7.00;99.90;;;;;;5015832;28;20168;-59
2023/10/18 04:04:50;;;;;;;5.18;3.30;;;7.00;99.90;;;;;;5015422;28;20254;-59
2023/10/18 04:07:24;;;;;;;3.65;3.20;;;7.00;99.90;;;;;;5015243;28;20203;-59
2023/10/18 04:12:27;;;;;;;6.70;3.20;;;7.10;99.90;;;;;;5015384;28;20186;-58
2023/10/18 04:14:55;;;;;;;6.43;3.72;;;7.00;99.90;;;;;;5015730;28;20172;-58
2023/10/18 04:20:01;;;;;;;5.32;3.20;;;7.00;99.90;;;;;;5015399;28;20242;-58
2023/10/18 04:22:30;;;;;;;7.53;3.60;;;7.00;99.90;;;;;;5015215;28;20172;-58
2023/10/18 04:24:56;;;;;;;5.57;3.40;;;7.00;99.90;;;;;;5015408;28;20529;-58
2023/10/18 04:27:23;;;;;;;5.70;3.47;;;7.00;99.90;;;;;;5015422;28;20212;-57
2023/10/18 04:29:49;;;;;;;4.85;3.42;;;7.00;99.90;;;;;;5015252;28;20167;-58
2023/10/18 04:32:18;;;;;;;5.28;4.00;;;7.00;99.90;;;;;;5014770;28;20171;-58
2023/10/18 04:34:44;;;;;;;5.15;3.53;;;7.00;99.90;;;;;;5014773;28;20168;-58
2023/10/18 04:37:12;;;;;;;4.60;3.25;;;7.00;99.90;;;;;;5014890;28;20176;-58
2023/10/18 04:39:41;;;;;;;6.97;4.10;;;7.00;99.90;;;;;;5014985;28;20660;-58
2023/10/18 04:42:08;;;;;;;11.45;5.35;;;7.00;99.90;;;;;;5014667;28;20658;-58
2023/10/18 04:44:35;;;;;;;15.32;8.15;;;7.00;99.90;;;;;;5014727;28;20195;-58
2023/10/18 04:47:04;;;;;;;23.75;11.73;;;7.00;99.90;;;;;;5014594;28;20187;-59
2023/10/18 04:50:11;;;;;;;8.43;4.90;;;9.60;99.90;;;;;;5015003;28;20179;-59
2023/10/18 04:52:28;;;;;;;10.48;6.20;;;7.10;99.90;;;;;;5009149;28;20183;-59
2023/10/18 04:55:04;;;;;;;10.48;6.47;;;7.10;99.90;;;;;;5014879;28;20595;-58
2023/10/18 04:57:31;;;;;;;16.65;9.50;;;7.10;99.90;;;;;;5014602;28;20184;-58
2023/10/18 05:00:09;;;;;;;9.75;6.72;;;7.10;99.90;;;;;;5014455;28;20183;-58
2023/10/18 05:02:38;;;;;;;8.27;5.82;;;7.10;99.90;;;;;;5013071;28;20674;-59
2023/10/18 05:05:10;;;;;;;16.73;6.55;;;7.10;99.90;;;;;;5013920;28;20208;-59
2023/10/18 05:07:41;;;;;;;6.70;3.92;;;7.10;99.90;;;;;;5014256;28;20204;-59
2023/10/18 05:10:14;;;;;;;12.07;6.80;;;7.10;99.90;;;;;;5014318;28;20302;-59
2023/10/18 05:13:32;;;;;;;6.50;4.47;;;7.10;99.90;;;;;;5014295;28;20530;-59
2023/10/18 05:15:32;;;;;;;8.40;5.07;;;7.10;99.90;;;;;;5005825;28;20234;-59
2023/10/18 05:18:04;;;;;;;4.72;3.42;;;7.10;99.90;;;;;;5014174;28;20179;-59
2023/10/18 05:23:19;;;;;;;7.50;5.05;;;7.10;99.90;;;;;;5013799;28;20529;-59
2023/10/18 05:25:45;;;;;;;5.32;3.60;;;7.10;99.90;;;;;;5014160;28;20178;-59
2023/10/18 05:28:24;;;;;;;7.85;5.72;;;7.10;99.90;;;;;;5014082;28;20215;-59
2023/10/18 05:33:47;;;;;;;9.48;4.85;;;7.10;99.90;;;;;;5014092;28;20225;-59
2023/10/18 05:43:58;;;;;;;7.80;4.57;;;7.00;99.90;;;;;;5013618;28;20588;-59
2023/10/18 05:46:28;;;;;;;6.90;4.82;;;7.10;99.90;;;;;;5013367;28;20568;-59
2023/10/18 05:48:57;;;;;;;4.75;4.22;;;7.10;99.90;;;;;;5014079;28;20199;-58
2023/10/18 05:53:57;;;;;;;9.43;4.07;;;7.10;99.90;;;;;;5014011;28;20180;-59
2023/10/18 05:56:29;;;;;;;8.23;4.65;;;7.10;99.90;;;;;;5013799;28;20164;-59
2023/10/18 06:01:43;;;;;;;5.57;3.85;;;7.00;99.90;;;;;;5013601;28;20211;-59
2023/10/18 06:04:09;;;;;;;5.57;4.57;;;7.10;99.90;;;;;;5013343;28;20168;-59
2023/10/18 06:06:37;;;;;;;6.85;5.30;;;7.10;99.90;;;;;;5013214;28;20278;-59
2023/10/18 06:09:10;;;;;;;9.05;4.75;;;7.10;99.90;;;;;;5013300;28;20176;-59
2023/10/18 06:11:39;;;;;;;6.25;4.03;;;7.10;99.90;;;;;;5013211;28;20175;-59
2023/10/18 06:14:08;;;;;;;5.93;3.85;;;7.10;99.90;;;;;;5013023;28;20168;-59
2023/10/18 06:16:34;;;;;;;6.55;4.20;;;7.10;99.90;;;;;;5012091;28;20256;-59
2023/10/18 06:19:06;;;;;;;6.53;4.53;;;7.10;99.90;;;;;;5013001;28;20156;-59
2023/10/18 06:21:36;;;;;;;4.82;3.55;;;7.10;99.90;;;;;;5012959;28;20247;-59
2023/10/18 06:24:10;;;;;;;5.05;4.07;;;7.10;99.90;;;;;;5012977;28;20210;-59
2023/10/18 06:26:40;;;;;;;7.22;3.75;;;7.10;99.90;;;;;;5013088;28;20203;-59
2023/10/18 06:29:08;;;;;;;5.20;3.95;;;7.20;99.90;;;;;;5012699;28;20263;-59
2023/10/18 06:31:43;;;;;;;6.57;4.10;;;7.20;99.90;;;;;;5012817;28;20267;-59
2023/10/18 06:34:29;;;;;;;8.10;4.32;;;7.20;99.90;;;;;;5012706;28;20167;-59
2023/10/18 06:36:56;;;;;;;6.93;4.13;;;7.20;99.90;;;;;;5012825;28;20172;-59
2023/10/18 06:39:34;;;;;;;8.13;3.85;;;7.20;99.90;;;;;;5013017;28;20211;-59
2023/10/18 06:41:59;;;;;;;6.05;4.40;;;7.30;99.90;;;;;;5012728;28;20198;-59
2023/10/18 06:44:30;;;;;;;5.63;3.80;;;7.30;99.90;;;;;;5012585;28;20627;-59
2023/10/18 06:46:57;;;;;;;5.18;3.95;;;7.30;99.90;;;;;;5012408;28;20774;-59
2023/10/18 06:49:25;;;;;;;6.30;3.80;;;7.40;99.90;;;;;;5013074;28;20172;-59
2023/10/18 06:51:51;;;;;;;5.28;4.35;;;7.40;99.90;;;;;;5012971;28;20533;-59
2023/10/18 06:54:32;;;;;;;6.43;3.95;;;7.40;99.90;;;;;;5012340;28;20165;-59
2023/10/18 06:56:58;;;;;;;13.18;4.32;;;7.50;99.90;;;;;;5012147;28;20183;-59
2023/10/18 06:59:27;;;;;;;7.38;3.95;;;7.50;99.90;;;;;;5012360;28;20164;-59
2023/10/18 07:01:54;;;;;;;9.55;3.90;;;7.60;99.90;;;;;;5012555;28;20623;-59
2023/10/18 07:04:27;;;;;;;7.82;3.80;;;7.60;99.90;;;;;;5012892;28;20207;-58
2023/10/18 07:06:52;;;;;;;4.50;3.60;;;7.70;99.90;;;;;;5012685;28;20211;-58
2023/10/18 07:09:31;;;;;;;5.65;3.85;;;7.70;99.90;;;;;;5011909;28;20216;-58
2023/10/18 07:12:00;;;;;;;7.03;4.10;;;7.80;99.90;;;;;;5012254;28;20325;-58
2023/10/18 07:14:30;;;;;;;6.50;4.40;;;7.90;99.90;;;;;;5012239;28;20178;-58
2023/10/18 07:17:00;;;;;;;8.73;4.65;;;7.90;99.90;;;;;;5011954;28;20662;-58
2023/10/18 07:19:26;;;;;;;5.07;4.13;;;7.90;99.90;;;;;;5012034;28;20172;-59
2023/10/18 07:21:53;;;;;;;9.95;4.43;;;8.00;99.90;;;;;;5012517;28;20525;-58
2023/10/18 07:24:27;;;;;;;8.73;4.47;;;8.10;99.90;;;;;;5012544;28;20203;-58
2023/10/18 07:26:53;;;;;;;7.72;5.47;;;8.10;99.90;;;;;;5011048;28;20207;-58
2023/10/18 07:29:20;;;;;;;7.22;4.32;;;8.20;99.90;;;;;;5012316;28;20172;-58
2023/10/18 07:31:46;;;;;;;9.20;5.45;;;8.30;99.90;;;;;;5011770;28;20191;-58
2023/10/18 07:34:18;;;;;;;7.45;4.00;;;8.40;99.90;;;;;;5011716;28;20195;-58
2023/10/18 07:36:45;;;;;;;5.97;3.90;;;8.40;99.90;;;;;;5011641;28;20175;-58
2023/10/18 07:39:16;;;;;;;6.10;4.30;;;8.40;99.90;;;;;;5010406;28;20168;-58
2023/10/18 07:41:46;;;;;;;6.22;4.47;;;8.50;99.90;;;;;;5011566;28;20172;-59
2023/10/18 07:44:11;;;;;;;6.05;4.28;;;8.60;99.90;;;;;;5011601;28;20526;-59
2023/10/18 07:46:41;;;;;;;7.07;4.75;;;8.70;99.90;;;;;;5011668;28;20211;-59
2023/10/18 07:49:13;;;;;;;8.35;5.18;;;8.70;99.90;;;;;;5011658;28;20196;-58
2023/10/18 07:51:48;;;;;;;11.48;4.63;;;8.70;99.90;;;;;;5011569;28;20252;-59
2023/10/18 07:54:15;;;;;;;8.13;4.80;;;8.80;99.90;;;;;;5011570;28;20538;-59
2023/10/18 07:56:48;;;;;;;6.78;4.95;;;8.70;99.90;;;;;;5011539;28;20168;-59
2023/10/18 07:59:29;;;;;;;8.35;5.18;;;8.80;99.90;;;;;;5011797;28;20558;-59
2023/10/18 08:04:47;;;;;;;6.80;5.13;;;8.80;99.90;;;;;;5011782;28;20650;-59
2023/10/18 08:07:20;;;;;;;5.80;5.10;;;8.80;99.90;;;;;;5011350;28;20191;-58
2023/10/18 08:09:51;;;;;;;10.02;5.60;;;8.80;99.90;;;;;;5011285;28;20251;-59
2023/10/18 08:12:28;;;;;;;10.57;5.22;;;8.90;99.90;;;;;;5011341;28;20169;-58
2023/10/18 08:14:54;;;;;;;6.03;5.07;;;8.90;99.90;;;;;;5011604;28;20175;-59
2023/10/18 08:17:30;;;;;;;8.32;5.68;;;9.00;99.90;;;;;;5011879;28;20263;-59
2023/10/18 08:22:45;;;;;;;7.28;5.03;;;9.10;99.90;;;;;;5011167;28;20179;-59
2023/10/18 08:25:24;;;;;;;6.68;5.47;;;9.20;99.90;;;;;;5011140;28;20624;-59
2023/10/18 08:27:53;;;;;;;8.13;5.30;;;9.30;99.90;;;;;;5011833;28;20294;-59
2023/10/18 08:33:08;;;;;;;7.80;5.13;;;9.30;99.90;;;;;;4983042;28;20242;-59
2023/10/18 08:35:34;;;;;;;7.10;5.70;;;9.40;99.90;;;;;;5011090;28;20635;-59
2023/10/18 08:38:03;;;;;;;10.80;6.07;;;9.40;99.90;;;;;;5010997;28;20596;-59
2023/10/18 08:43:28;;;;;;;6.55;5.40;;;9.50;99.90;;;;;;5014990;28;20206;-59
2023/10/18 08:45:55;;;;;;;10.38;6.10;;;9.50;99.90;;;;;;5014687;28;20160;-59
2023/10/18 08:48:28;;;;;;;9.88;6.90;;;9.60;99.90;;;;;;5014950;28;20211;-59
2023/10/18 08:50:55;;;;;;;9.55;6.00;;;9.80;99.90;;;;;;5014829;28;20219;-59
2023/10/18 08:53:25;;;;;;;12.88;6.95;;;9.80;99.90;;;;;;5013746;28;20238;-59
2023/10/18 08:55:52;;;;;;;11.27;6.60;;;9.90;99.90;;;;;;5014829;28;20211;-58
2023/10/18 08:58:19;;;;;;;12.50;6.82;;;9.90;99.90;;;;;;5014438;28;20671;-59
2023/10/18 09:03:13;;;;;;;10.95;6.53;;;10.20;99.90;;;;;;5014601;28;20182;-58
2023/10/18 09:05:40;;;;;;;7.20;6.07;;;10.30;99.90;;;;;;5014512;28;20176;-59
2023/10/18 09:08:08;;;;;;;9.85;6.90;;;10.40;99.90;;;;;;5014207;28;20212;-59
2023/10/18 09:18:30;;;;;;;26.83;16.08;;;11.00;99.90;;;;;;5014398;28;20717;-59
2023/10/18 09:21:04;;;;;;;10.00;7.90;;;11.20;99.90;;;;;;5014014;28;20168;-59
2023/10/18 09:23:30;;;;;;;19.33;7.25;;;11.20;99.90;;;;;;5013945;28;20160;-59
2023/10/18 09:26:10;;;;;;;8.90;6.28;;;11.20;99.90;;;;;;5013899;28;20184;-59
2023/10/18 09:28:37;;;;;;;9.77;7.82;;;11.00;99.90;;;;;;5013735;28;20298;-59
2023/10/18 09:31:09;;;;;;;8.50;6.20;;;11.10;99.90;;;;;;5013855;28;20160;-59
2023/10/18 09:33:39;;;;;;;17.42;8.85;;;11.00;99.90;;;;;;5013759;28;20168;-59
2023/10/18 09:36:19;;;;;;;18.55;8.98;;;11.10;99.90;;;;;;5013922;28;20212;-59
2023/10/18 09:38:49;;;;;;;11.13;6.57;;;11.30;99.90;;;;;;5013673;28;20698;-59
2023/10/18 09:41:15;;;;;;;12.15;8.85;;;11.30;99.90;;;;;;5013921;28;20180;-59
2023/10/18 09:43:41;;;;;;;11.25;6.88;;;11.60;99.90;;;;;;5013616;28;20176;-59
2023/10/18 09:46:08;;;;;;;7.05;6.32;;;11.90;99.90;;;;;;5013499;28;20178;-58
2023/10/18 09:48:43;;;;;;;10.05;7.07;;;12.00;99.90;;;;;;5013403;28;20206;-59
2023/10/18 09:51:10;;;;;;;6.55;5.43;;;12.10;99.90;;;;;;5013200;28;20225;-59
2023/10/18 09:53:42;;;;;;;9.40;7.32;;;12.10;99.90;;;;;;5013319;28;20168;-58
2023/10/18 09:56:10;;;;;;;11.68;8.77;;;12.10;99.90;;;;;;5013617;28;20168;-59
2023/10/18 09:58:42;;;;;;;8.00;6.35;;;12.20;99.90;;;;;;5013291;28;20176;-59
2023/10/18 10:01:29;;;;;;;10.98;7.10;;;12.30;99.90;;;;;;5013571;28;20172;-59
2023/10/18 10:03:58;;;;;;;11.18;6.90;;;12.50;99.90;;;;;;5013255;28;20533;-58
2023/10/18 10:06:25;;;;;;;11.50;7.13;;;12.80;99.90;;;;;;5013364;28;20164;-58
2023/10/18 10:09:09;;;;;;;13.65;7.72;;;12.70;99.90;;;;;;5013578;28;20654;-58
2023/10/18 10:11:36;;;;;;;12.02;7.38;;;12.90;99.90;;;;;;5011778;28;20187;-58
2023/10/18 10:14:03;;;;;;;13.20;9.70;;;13.00;99.90;;;;;;5013241;28;20187;-58
2023/10/18 10:16:31;;;;;;;7.97;6.30;;;13.10;99.90;;;;;;5012197;28;20164;-58
2023/10/18 10:19:04;;;;;;;14.90;9.43;;;13.10;99.90;;;;;;5012876;28;20262;-58
2023/10/18 10:21:33;;;;;;;11.85;6.40;;;13.10;99.90;;;;;;5012874;28;20261;-58
2023/10/18 10:24:06;;;;;;;9.02;6.95;;;13.10;99.90;;;;;;5011279;28;20172;-58
2023/10/18 10:26:35;;;;;;;11.85;7.10;;;13.10;99.90;;;;;;5012639;28;20172;-58
2023/10/18 10:31:56;;;;;;;18.45;10.20;;;13.00;99.90;;;;;;5012469;28;20191;-58
2023/10/18 10:34:32;;;;;;;7.65;6.13;;;13.20;99.90;;;;;;5013145;28;20539;-58
2023/10/18 10:37:09;;;;;;;14.18;7.00;;;13.30;99.90;;;;;;5012578;28;20175;-58
2023/10/18 10:40:18;;;;;;;12.05;6.75;;;13.50;99.90;;;;;;5012656;28;20171;-58
2023/10/18 10:42:44;;;;;;;10.68;7.10;;;13.50;99.90;;;;;;5012235;28;20221;-58
2023/10/18 10:45:30;;;;;;;8.02;5.25;;;13.70;99.90;;;;;;5012201;28;20168;-58
2023/10/18 10:48:37;;;;;;;13.75;7.18;;;13.70;99.90;;;;;;5012284;28;20207;-58
2023/10/18 10:51:11;;;;;;;6.05;4.97;;;13.50;99.90;;;;;;5011795;28;20225;-58
2023/10/18 10:53:48;;;;;;;7.18;5.07;;;13.50;99.90;;;;;;5012136;28;20601;-58
2023/10/18 10:56:26;;;;;;;8.50;4.90;;;13.40;99.90;;;;;;5012040;28;20164;-58
2023/10/18 10:59:09;;;;;;;6.97;4.60;;;13.30;99.90;;;;;;5012368;28;20191;-58
2023/10/18 11:01:43;;;;;;;7.20;4.80;;;13.30;99.90;;;;;;5011430;28;20632;-58
2023/10/18 11:04:24;;;;;;;8.25;4.60;;;13.40;99.90;;;;;;5011851;28;20175;-58
2023/10/18 11:06:56;;;;;;;4.53;4.03;;;13.30;99.90;;;;;;5012136;28;20198;-58
2023/10/18 11:09:32;;;;;;;7.50;5.05;;;13.40;99.90;;;;;;5012099;28;20698;-58
2023/10/18 11:12:03;;;;;;;7.05;4.57;;;13.40;99.90;;;;;;5012407;28;20190;-58
2023/10/18 11:14:30;;;;;;;6.95;4.43;;;13.40;99.90;;;;;;5011570;28;20230;-58
2023/10/18 11:19:53;;;;;;;6.75;3.92;;;13.60;99.90;;;;;;5011911;28;20546;-58
2023/10/18 11:22:21;;;;;;;6.85;4.40;;;13.60;99.90;;;;;;5012273;28;20229;-58
2023/10/18 11:24:51;;;;;;;4.13;3.67;;;13.70;99.90;;;;;;5011520;28;20160;-58
2023/10/18 11:27:18;;;;;;;9.63;5.00;;;13.90;99.90;;;;;;5011379;28;20287;-58
2023/10/18 11:29:45;;;;;;;4.07;3.72;;;14.00;99.90;;;;;;5011282;28;20175;-58
2023/10/18 11:32:20;;;;;;;6.28;3.97;;;14.10;99.90;;;;;;5011456;28;20167;-58
2023/10/18 11:34:46;;;;;;;7.50;4.78;;;14.20;99.90;;;;;;5011441;28;20167;-58
2023/10/18 11:37:34;;;;;;;5.50;3.72;;;14.10;99.90;;;;;;5010348;28;20172;-58
2023/10/18 11:40:14;;;;;;;4.45;3.72;;;14.00;99.90;;;;;;5011461;28;20170;-58
2023/10/18 11:43:04;;;;;;;4.78;3.50;;;14.10;99.90;;;;;;5009943;28;20171;-58
2023/10/18 11:45:30;;;;;;;6.57;3.65;;;14.40;99.90;;;;;;5011394;28;20168;-58
2023/10/18 11:47:55;;;;;;;4.85;3.70;;;14.50;99.90;;;;;;5011136;28;20216;-59
2023/10/18 11:50:23;;;;;;;15.50;6.75;;;14.60;99.90;;;;;;5011725;28;20266;-58
2023/10/18 11:52:51;;;;;;;9.38;4.13;;;14.70;99.90;;;;;;5012016;28;20534;-58
2023/10/18 11:55:17;;;;;;;7.38;4.57;;;14.80;99.90;;;;;;5011348;28;20641;-58
2023/10/18 11:57:46;;;;;;;7.28;4.60;;;14.80;99.90;;;;;;5011018;28;20256;-58
2023/10/18 12:02:51;;;;;;;10.32;7.03;;;15.00;99.90;;;;;;5011795;28;20630;-58
2023/10/18 12:05:23;;;;;;;7.55;3.90;;;14.90;99.90;;;;;;5011350;28;20537;-58
2023/10/18 12:07:49;;;;;;;9.40;5.53;;;15.10;99.90;;;;;;5011510;28;20210;-58
2023/10/18 12:10:25;;;;;;;8.48;4.68;;;15.10;99.90;;;;;;5010957;28;20216;-58
2023/10/18 12:12:52;;;;;;;8.18;4.93;;;15.20;99.90;;;;;;5009913;28;20186;-58
2023/10/18 12:15:19;;;;;;;7.22;4.70;;;15.20;99.90;;;;;;5015284;28;20222;-58
2023/10/18 12:17:46;;;;;;;9.95;4.55;;;15.20;99.90;;;;;;5015013;28;20164;-58
2023/10/18 12:20:12;;;;;;;7.00;4.30;;;15.20;99.90;;;;;;5014845;28;20156;-58
2023/10/18 12:22:42;;;;;;;4.03;3.13;;;15.40;99.90;;;;;;5014879;28;20168;-59
2023/10/18 12:25:08;;;;;;;5.82;4.18;;;15.40;99.90;;;;;;5014857;28;20500;-58
2023/10/18 12:27:34;;;;;;;8.10;4.53;;;15.30;99.90;;;;;;5014405;28;20655;-58
2023/10/18 12:30:27;;;;;;;6.63;4.07;;;15.20;99.90;;;;;;5014786;28;20222;-58
2023/10/18 12:32:54;;;;;;;6.32;4.07;;;15.30;99.90;;;;;;5014923;28;20226;-58
2023/10/18 12:35:20;;;;;;;6.75;3.25;;;15.10;99.90;;;;;;5015414;28;20689;-58
2023/10/18 12:37:51;;;;;;;9.20;3.72;;;15.00;99.90;;;;;;5014620;28;20168;-58
2023/10/18 12:40:40;;;;;;;5.40;4.00;;;14.90;99.90;;;;;;5014327;28;20179;-58
2023/10/18 12:43:06;;;;;;;4.70;2.97;;;14.90;99.90;;;;;;5014520;28;20164;-58
2023/10/18 12:45:42;;;;;;;13.80;6.45;;;14.90;99.90;;;;;;5014509;28;20528;-59
2023/10/18 12:48:11;;;;;;;9.05;5.22;;;15.00;99.90;;;;;;5014640;28;20214;-59
2023/10/18 12:50:37;;;;;;;5.85;3.50;;;15.00;99.90;;;;;;5014634;28;20179;-58
2023/10/18 12:55:57;;;;;;;8.27;4.35;;;15.20;99.90;;;;;;5014495;28;20537;-58
2023/10/18 12:58:29;;;;;;;7.97;4.20;;;15.20;99.90;;;;;;5014151;28;20627;-58
2023/10/18 13:01:05;;;;;;;6.28;3.33;;;15.20;99.90;;;;;;5014455;28;20180;-58
2023/10/18 13:03:34;;;;;;;10.70;5.88;;;15.10;99.90;;;;;;5014221;28;20199;-58
2023/10/18 13:06:00;;;;;;;7.95;4.38;;;15.00;99.90;;;;;;5014168;28;20172;-58
2023/10/18 13:08:26;;;;;;;6.13;3.30;;;14.90;99.90;;;;;;5014036;28;20203;-58
2023/10/18 13:13:31;;;;;;;11.52;5.72;;;14.90;99.90;;;;;;5014402;28;20699;-58
2023/10/18 13:15:58;;;;;;;10.98;4.90;;;15.00;99.90;;;;;;5013972;28;20255;-58
2023/10/18 13:18:27;;;;;;;7.25;3.50;;;15.00;99.90;;;;;;5013823;28;20175;-59
2023/10/18 13:20:58;;;;;;;3.92;2.90;;;15.10;99.90;;;;;;5014246;28;20179;-58
2023/10/18 13:23:27;;;;;;;6.57;3.45;;;15.10;99.90;;;;;;5013732;28;20175;-59
2023/10/18 13:25:53;;;;;;;8.63;3.95;;;15.10;99.90;;;;;;5012942;28;20171;-58
2023/10/18 13:28:25;;;;;;;9.98;6.00;;;15.10;99.90;;;;;;5014038;28;20261;-58
2023/10/18 13:30:54;;;;;;;12.90;7.15;;;15.20;99.90;;;;;;5014004;28;20195;-58
2023/10/18 13:33:20;;;;;;;6.93;3.78;;;15.20;99.90;;;;;;5014055;28;20184;-58
2023/10/18 13:35:49;;;;;;;3.60;2.65;;;15.20;99.90;;;;;;5013703;28;20164;-58
2023/10/18 13:38:15;;;;;;;6.68;2.47;;;15.20;99.90;;;;;;5013433;28;20184;-58
2023/10/18 13:40:43;;;;;;;6.35;2.88;;;15.20;99.90;;;;;;5013672;28;20577;-58
2023/10/18 13:43:09;;;;;;;6.40;4.00;;;15.10;99.90;;;;;;5013653;28;20176;-58
2023/10/18 13:45:37;;;;;;;7.55;2.85;;;15.10;99.90;;;;;;5013375;28;20175;-58
2023/10/18 13:48:02;;;;;;;5.78;2.88;;;15.00;99.90;;;;;;5013256;28;20203;-58
2023/10/18 13:50:34;;;;;;;5.07;3.30;;;14.90;99.90;;;;;;5013069;28;20221;-58
2023/10/18 13:53:00;;;;;;;4.60;2.90;;;14.90;99.90;;;;;;5011568;28;20647;-58
2023/10/18 13:55:26;;;;;;;3.58;2.65;;;14.80;99.90;;;;;;5012793;28;20166;-58
2023/10/18 13:57:51;;;;;;;3.85;2.63;;;14.80;99.90;;;;;;5013487;28;20255;-58
2023/10/18 14:00:21;;;;;;;4.63;2.60;;;14.80;99.90;;;;;;5012714;28;20168;-58
2023/10/18 14:02:47;;;;;;;4.40;2.35;;;14.70;99.90;;;;;;5012183;28;20540;-58
2023/10/18 14:05:13;;;;;;;5.03;2.50;;;14.70;99.90;;;;;;5012851;28;20175;-58
2023/10/18 14:07:38;;;;;;;16.83;9.77;;;14.60;99.90;;;;;;5012646;28;20212;-58
2023/10/18 14:10:15;;;;;;;7.10;6.25;;;14.60;99.90;;;;;;5011509;28;20215;-58
2023/10/18 14:12:41;;;;;;;11.68;7.40;;;14.50;99.90;;;;;;5013041;28;20180;-58